Time;durP1;ratioP1;P1;durP2;ratioP2;P2;SDS_P1;SDS_P2;PMS_P1;PMS_P2;Temp;Humidity;BMP_temperature;BMP_pressure;BME280_temperature;BME280_humidity;BME280_pressure;Samples;Min_cycle;Max_cycle;Signal;HPM_P1;HPM_P2
2022/11/13 00:01:52;;;;;;;8.03;7.43;;;8.10;99.90;;;;;;5014255;28;20212;-67
2022/11/13 00:04:17;;;;;;;8.90;8.10;;;8.00;99.90;;;;;;5013886;28;20176;-67
2022/11/13 00:06:43;;;;;;;7.60;7.00;;;8.00;99.90;;;;;;5014280;28;20535;-68
2022/11/13 00:09:10;;;;;;;8.73;8.03;;;7.90;99.90;;;;;;5013798;28;20259;-68
2022/11/13 00:11:36;;;;;;;8.70;7.83;;;7.90;99.90;;;;;;5013641;28;20262;-68
2022/11/13 00:14:02;;;;;;;8.37;7.77;;;7.90;99.90;;;;;;5012941;28;20208;-66
2022/11/13 00:16:27;;;;;;;10.00;8.10;;;7.80;99.90;;;;;;5013624;28;20180;-66
2022/11/13 00:18:53;;;;;;;8.53;7.83;;;7.80;99.90;;;;;;5014024;28;20255;-67
2022/11/13 00:21:21;;;;;;;8.73;8.13;;;7.80;99.90;;;;;;5013409;28;20208;-66
2022/11/13 00:23:47;;;;;;;9.60;8.80;;;7.80;99.90;;;;;;5013629;28;20181;-67
2022/11/13 00:26:16;;;;;;;7.77;7.17;;;7.80;99.90;;;;;;5012657;28;20184;-66
2022/11/13 00:28:42;;;;;;;7.97;7.47;;;7.80;99.90;;;;;;5012182;28;20172;-66
2022/11/13 00:31:09;;;;;;;9.83;8.93;;;7.80;99.90;;;;;;5011209;28;20231;-66
2022/11/13 00:33:35;;;;;;;9.73;8.97;;;7.80;99.90;;;;;;5011739;28;20186;-67
2022/11/13 00:36:09;;;;;;;9.13;8.37;;;7.80;99.90;;;;;;5013717;28;20180;-66
2022/11/13 00:38:35;;;;;;;9.33;8.70;;;7.80;99.90;;;;;;5012138;28;20179;-67
2022/11/13 00:41:01;;;;;;;8.40;7.70;;;7.70;99.90;;;;;;5013249;28;20301;-66
2022/11/13 00:43:27;;;;;;;8.20;7.57;;;7.70;99.90;;;;;;5012609;28;20263;-67
2022/11/13 00:45:52;;;;;;;7.93;7.33;;;7.70;99.90;;;;;;5013319;28;20531;-68
2022/11/13 00:48:19;;;;;;;7.67;7.07;;;7.70;99.90;;;;;;5013157;28;20549;-67
2022/11/13 00:50:45;;;;;;;8.07;7.53;;;7.70;99.90;;;;;;5013066;28;20185;-66
2022/11/13 00:53:11;;;;;;;8.27;7.67;;;7.70;99.90;;;;;;5013013;28;20645;-66
2022/11/13 00:55:36;;;;;;;9.23;8.43;;;7.70;99.90;;;;;;4993755;28;20185;-67
2022/11/13 00:58:03;;;;;;;9.40;8.60;;;7.70;99.90;;;;;;5002503;28;20199;-66
2022/11/13 01:00:29;;;;;;;8.83;8.13;;;7.70;99.90;;;;;;5011647;28;20233;-66
2022/11/13 01:02:57;;;;;;;8.60;8.00;;;7.70;99.90;;;;;;5012985;28;20192;-67
2022/11/13 01:05:23;;;;;;;8.70;8.00;;;7.70;99.90;;;;;;5013079;28;20223;-67
2022/11/13 01:07:48;;;;;;;9.03;8.47;;;7.70;99.90;;;;;;5013022;28;20180;-67
2022/11/13 01:10:14;;;;;;;9.57;8.80;;;7.70;99.90;;;;;;5011410;28;20183;-67
2022/11/13 01:12:40;;;;;;;10.00;8.67;;;7.70;99.90;;;;;;5063817;23;20253;-66
2022/11/13 01:15:06;;;;;;;9.50;8.70;;;7.70;99.90;;;;;;5052645;28;20171;-66
2022/11/13 01:17:31;;;;;;;8.67;7.97;;;7.80;99.90;;;;;;5052383;28;20179;-66
2022/11/13 01:19:57;;;;;;;8.13;7.53;;;7.70;99.90;;;;;;5052315;28;20177;-66
2022/11/13 01:22:22;;;;;;;8.80;8.03;;;7.70;99.90;;;;;;5051291;28;20195;-66
2022/11/13 01:24:48;;;;;;;9.20;8.50;;;7.70;99.90;;;;;;5031287;28;20744;-66
2022/11/13 01:27:14;;;;;;;8.63;7.77;;;7.80;99.90;;;;;;5048342;28;20181;-66
2022/11/13 01:29:41;;;;;;;8.90;8.20;;;7.70;99.90;;;;;;5051573;28;20244;-66
2022/11/13 01:32:06;;;;;;;9.67;8.93;;;7.70;99.90;;;;;;5036493;28;20200;-66
2022/11/13 01:34:32;;;;;;;8.73;7.93;;;7.70;99.90;;;;;;5032277;28;20186;-66
2022/11/13 01:36:58;;;;;;;9.87;9.07;;;7.70;99.90;;;;;;5045171;28;20198;-66
2022/11/13 01:39:24;;;;;;;8.97;8.33;;;7.70;99.90;;;;;;5051696;28;20178;-66
2022/11/13 01:41:49;;;;;;;9.83;8.67;;;7.70;99.90;;;;;;5042698;28;20579;-66
2022/11/13 01:44:17;;;;;;;9.67;8.77;;;7.70;99.90;;;;;;5055690;28;20170;-66
2022/11/13 01:46:54;;;;;;;9.10;8.40;;;7.70;99.90;;;;;;5056699;28;20197;-66
2022/11/13 01:49:39;;;;;;;9.10;8.50;;;7.70;99.90;;;;;;5047200;28;20195;-65
2022/11/13 01:52:10;;;;;;;8.90;8.17;;;7.70;99.90;;;;;;5033385;28;20257;-65
2022/11/13 01:54:47;;;;;;;9.63;9.00;;;7.60;99.90;;;;;;5031866;28;20553;-66
2022/11/13 01:57:14;;;;;;;8.50;7.73;;;7.60;99.90;;;;;;5043958;28;20198;-66
2022/11/13 01:59:44;;;;;;;8.43;7.73;;;7.60;99.90;;;;;;5051391;28;20636;-65
2022/11/13 02:02:09;;;;;;;8.47;7.87;;;7.60;99.90;;;;;;5040230;28;20211;-66
2022/11/13 02:04:35;;;;;;;9.23;8.40;;;7.60;99.90;;;;;;5031713;28;20224;-66
2022/11/13 02:07:06;;;;;;;8.67;7.87;;;7.60;99.90;;;;;;5032941;28;20553;-66
2022/11/13 02:09:37;;;;;;;8.17;7.57;;;7.60;99.90;;;;;;5031347;28;20700;-66
2022/11/13 02:12:06;;;;;;;9.60;8.77;;;7.50;99.90;;;;;;5047658;28;20233;-66
2022/11/13 02:14:32;;;;;;;8.93;8.20;;;7.50;99.90;;;;;;5051230;28;20182;-66
2022/11/13 02:17:03;;;;;;;9.43;8.57;;;7.50;99.90;;;;;;5036103;28;20186;-65
2022/11/13 02:19:32;;;;;;;8.50;7.80;;;7.40;99.90;;;;;;5036023;28;20550;-66
2022/11/13 02:22:23;;;;;;;9.63;8.87;;;7.40;99.90;;;;;;5051394;28;20213;-68
2022/11/13 02:24:48;;;;;;;9.23;8.37;;;7.40;99.90;;;;;;5044104;28;20176;-66
2022/11/13 02:27:24;;;;;;;9.10;8.30;;;7.40;99.90;;;;;;5031572;28;20178;-66
2022/11/13 02:29:50;;;;;;;8.03;7.43;;;7.40;99.90;;;;;;5037745;28;20174;-66
2022/11/13 02:32:15;;;;;;;8.93;8.33;;;7.40;99.90;;;;;;5051542;28;20694;-66
2022/11/13 02:34:41;;;;;;;9.37;7.73;;;7.40;99.90;;;;;;5046059;28;20179;-66
2022/11/13 02:37:07;;;;;;;7.97;7.33;;;7.40;99.90;;;;;;5031442;28;20576;-66
2022/11/13 02:39:32;;;;;;;7.57;7.07;;;7.40;99.90;;;;;;5031148;28;20577;-66
2022/11/13 02:41:58;;;;;;;8.30;7.70;;;7.30;99.90;;;;;;5031311;28;20214;-66
2022/11/13 02:44:24;;;;;;;8.57;7.87;;;7.30;99.90;;;;;;5031000;28;20225;-66
2022/11/13 02:46:49;;;;;;;8.20;7.60;;;7.30;99.90;;;;;;5031342;28;20540;-65
2022/11/13 02:49:15;;;;;;;8.30;7.70;;;7.30;99.90;;;;;;5031058;28;20191;-66
2022/11/13 02:51:40;;;;;;;8.93;8.13;;;7.30;99.90;;;;;;5050509;28;20594;-66
2022/11/13 02:54:06;;;;;;;8.87;8.07;;;7.30;99.90;;;;;;5049459;28;20183;-67
2022/11/13 02:56:32;;;;;;;9.97;8.97;;;7.30;99.90;;;;;;5051111;28;20235;-66
2022/11/13 02:58:57;;;;;;;10.47;9.47;;;7.30;99.90;;;;;;5045363;28;20210;-66
2022/11/13 03:01:23;;;;;;;8.60;8.00;;;7.30;99.90;;;;;;5030729;28;20294;-65
2022/11/13 03:03:48;;;;;;;8.83;8.23;;;7.30;99.90;;;;;;5034865;28;20175;-66
2022/11/13 03:06:14;;;;;;;9.73;8.93;;;7.30;99.90;;;;;;5051128;28;20228;-66
2022/11/13 03:08:39;;;;;;;10.17;9.30;;;7.30;99.90;;;;;;5051843;28;20193;-66
2022/11/13 03:11:07;;;;;;;8.27;7.53;;;7.30;99.90;;;;;;5034777;28;20176;-66
2022/11/13 03:13:33;;;;;;;9.53;8.90;;;7.30;99.90;;;;;;5043101;28;20189;-66
2022/11/13 03:16:25;;;;;;;8.70;7.93;;;7.30;99.90;;;;;;5054896;28;20543;-66
2022/11/13 03:18:51;;;;;;;9.77;9.00;;;7.30;99.90;;;;;;5042315;28;20625;-66
2022/11/13 03:21:16;;;;;;;9.07;8.27;;;7.30;99.90;;;;;;5034377;28;20288;-66
2022/11/13 03:23:46;;;;;;;8.03;7.53;;;7.20;99.90;;;;;;5043117;28;20667;-66
2022/11/13 03:26:14;;;;;;;8.87;8.17;;;7.20;99.90;;;;;;5054803;28;20199;-66
2022/11/13 03:28:40;;;;;;;8.13;7.53;;;7.10;99.90;;;;;;5046597;28;20190;-66
2022/11/13 03:31:06;;;;;;;8.83;7.93;;;7.10;99.90;;;;;;5034384;28;20263;-66
2022/11/13 03:33:32;;;;;;;9.13;8.40;;;7.00;99.90;;;;;;5040439;28;20711;-67
2022/11/13 03:35:57;;;;;;;10.40;9.30;;;7.00;99.90;;;;;;5054570;28;20253;-66
2022/11/13 03:38:24;;;;;;;8.33;7.70;;;6.90;99.90;;;;;;5052682;28;20191;-66
2022/11/13 03:40:50;;;;;;;9.37;8.43;;;6.90;99.90;;;;;;5054114;28;20191;-66
2022/11/13 03:43:16;;;;;;;7.90;7.20;;;6.80;99.90;;;;;;5051378;28;20315;-66
2022/11/13 03:45:45;;;;;;;8.77;8.03;;;6.70;99.90;;;;;;5034233;28;20395;-66
2022/11/13 03:48:11;;;;;;;8.73;7.93;;;6.70;99.90;;;;;;5034953;28;20268;-66
2022/11/13 03:50:37;;;;;;;7.80;7.20;;;6.60;99.90;;;;;;5053820;28;20171;-66
2022/11/13 03:53:02;;;;;;;9.07;8.20;;;6.60;99.90;;;;;;5053971;28;20290;-66
2022/11/13 03:55:28;;;;;;;8.40;7.70;;;6.60;99.90;;;;;;5032899;28;20179;-66
2022/11/13 03:57:54;;;;;;;8.20;7.50;;;6.60;99.90;;;;;;5032853;28;20180;-66
2022/11/13 04:00:20;;;;;;;8.53;7.83;;;6.60;99.90;;;;;;5051666;28;20225;-66
2022/11/13 04:02:46;;;;;;;9.07;7.87;;;6.60;99.90;;;;;;5053923;28;20194;-66
2022/11/13 04:05:11;;;;;;;8.37;7.43;;;6.60;99.90;;;;;;5037288;28;20183;-66
2022/11/13 04:07:37;;;;;;;8.73;7.80;;;6.50;99.90;;;;;;5045583;28;20274;-66
2022/11/13 04:10:03;;;;;;;8.43;7.67;;;6.50;99.90;;;;;;5049141;28;20172;-66
2022/11/13 04:12:28;;;;;;;8.87;8.07;;;6.50;99.90;;;;;;5033528;28;20211;-66
2022/11/13 04:14:54;;;;;;;8.57;7.83;;;6.50;99.90;;;;;;5035898;28;20209;-66
2022/11/13 04:17:20;;;;;;;8.53;7.87;;;6.50;99.90;;;;;;5053836;28;20178;-65
2022/11/13 04:19:45;;;;;;;7.83;7.17;;;6.50;99.90;;;;;;5051293;28;20186;-66
2022/11/13 04:22:11;;;;;;;8.77;7.97;;;6.50;99.90;;;;;;5032343;28;20281;-66
2022/11/13 04:24:37;;;;;;;9.27;8.60;;;6.50;99.90;;;;;;5033504;28;20187;-65
2022/11/13 04:27:03;;;;;;;8.37;7.67;;;6.50;99.90;;;;;;5051956;28;20179;-66
2022/11/13 04:29:28;;;;;;;8.23;7.40;;;6.50;99.90;;;;;;5053010;28;20254;-66
2022/11/13 04:31:54;;;;;;;12.67;8.60;;;6.50;99.90;;;;;;5036360;28;20207;-66
2022/11/13 04:34:19;;;;;;;8.33;7.53;;;6.50;99.90;;;;;;5033737;28;20671;-66
2022/11/13 04:36:45;;;;;;;8.17;7.43;;;6.50;99.90;;;;;;5053234;28;20259;-66
2022/11/13 04:39:10;;;;;;;8.40;7.60;;;6.50;99.90;;;;;;5052884;28;20257;-67
2022/11/13 04:44:20;;;;;;;8.63;7.93;;;6.50;99.90;;;;;;5033581;28;20174;-66
2022/11/13 04:46:46;;;;;;;8.70;7.93;;;6.50;99.90;;;;;;5053100;28;20249;-66
2022/11/13 04:49:11;;;;;;;8.80;7.80;;;6.50;99.90;;;;;;5052909;28;20577;-66
2022/11/13 04:51:37;;;;;;;7.60;6.97;;;6.50;99.90;;;;;;5034027;28;20199;-66
2022/11/13 04:54:02;;;;;;;7.43;6.97;;;6.50;99.90;;;;;;5033148;28;20262;-66
2022/11/13 04:56:28;;;;;;;7.93;7.30;;;6.50;99.90;;;;;;5050823;28;20178;-66
2022/11/13 04:58:53;;;;;;;8.57;7.93;;;6.40;99.90;;;;;;5053382;28;20175;-67
2022/11/13 05:01:19;;;;;;;8.63;8.03;;;6.40;99.90;;;;;;5040268;28;20214;-67
2022/11/13 05:03:45;;;;;;;8.23;7.53;;;6.30;99.90;;;;;;5048944;28;20209;-67
2022/11/13 05:06:10;;;;;;;8.23;7.53;;;6.30;99.90;;;;;;5054782;28;20171;-66
2022/11/13 05:08:36;;;;;;;8.37;7.73;;;6.30;99.90;;;;;;5040525;28;20183;-66
2022/11/13 05:11:02;;;;;;;7.80;7.23;;;6.30;99.90;;;;;;5032312;28;20186;-66
2022/11/13 05:13:35;;;;;;;8.30;7.70;;;6.20;99.90;;;;;;5042700;28;20179;-67
2022/11/13 05:16:06;;;;;;;8.43;7.70;;;6.20;99.90;;;;;;5052662;28;20167;-67
2022/11/13 05:18:34;;;;;;;8.20;7.60;;;6.10;99.90;;;;;;5041285;28;20245;-66
2022/11/13 05:21:00;;;;;;;8.47;7.87;;;6.00;99.90;;;;;;5032383;28;20199;-66
2022/11/13 05:23:26;;;;;;;8.80;8.10;;;6.00;99.90;;;;;;5040932;28;20652;-66
2022/11/13 05:25:52;;;;;;;8.67;7.60;;;6.00;99.90;;;;;;5052068;28;20221;-66
2022/11/13 05:28:18;;;;;;;8.17;7.47;;;5.90;99.90;;;;;;5050738;28;20178;-66
2022/11/13 05:30:44;;;;;;;8.03;7.30;;;5.80;99.90;;;;;;5051469;28;20181;-66
2022/11/13 05:33:09;;;;;;;7.80;7.30;;;5.80;99.90;;;;;;5047134;28;20203;-67
2022/11/13 05:35:35;;;;;;;8.93;8.10;;;5.70;99.90;;;;;;5032447;28;20250;-67
2022/11/13 05:38:01;;;;;;;7.57;7.00;;;5.70;99.90;;;;;;5034082;28;20229;-66
2022/11/13 05:40:27;;;;;;;8.37;7.77;;;5.70;99.90;;;;;;5051552;28;20240;-66
2022/11/13 05:42:55;;;;;;;7.97;7.47;;;5.60;99.90;;;;;;5050825;28;20187;-66
2022/11/13 05:45:21;;;;;;;9.33;8.67;;;5.60;99.90;;;;;;5043151;28;20603;-65
2022/11/13 05:47:46;;;;;;;10.27;9.43;;;5.60;99.90;;;;;;5032144;28;20266;-65
2022/11/13 05:50:12;;;;;;;10.00;9.20;;;5.50;99.90;;;;;;5031971;28;20250;-65
2022/11/13 05:52:38;;;;;;;8.53;7.83;;;5.50;99.90;;;;;;5031821;28;20187;-66
2022/11/13 05:55:04;;;;;;;8.00;7.30;;;5.40;99.90;;;;;;5049168;28;20186;-65
2022/11/13 05:57:30;;;;;;;8.23;7.53;;;5.50;99.90;;;;;;5051681;28;20170;-66
2022/11/13 05:59:55;;;;;;;8.07;7.50;;;5.50;99.90;;;;;;5035643;28;20724;-65
2022/11/13 06:02:21;;;;;;;10.27;8.17;;;5.50;99.90;;;;;;5031629;28;20389;-66
2022/11/13 06:04:50;;;;;;;8.93;8.23;;;5.50;99.90;;;;;;5032619;28;20179;-66
2022/11/13 06:07:15;;;;;;;8.13;7.63;;;5.40;99.90;;;;;;5031869;28;20175;-66
2022/11/13 06:09:41;;;;;;;8.70;8.00;;;5.40;99.90;;;;;;5046491;28;20555;-66
2022/11/13 06:12:07;;;;;;;8.80;8.10;;;5.40;99.90;;;;;;5051452;28;20345;-67
2022/11/13 06:14:32;;;;;;;7.03;6.63;;;5.40;99.90;;;;;;5035924;28;20679;-67
2022/11/13 06:16:58;;;;;;;8.30;7.73;;;5.40;99.90;;;;;;5031839;28;20167;-66
2022/11/13 06:19:23;;;;;;;8.33;7.73;;;5.40;99.90;;;;;;5042437;28;20269;-66
2022/11/13 06:21:49;;;;;;;8.30;7.60;;;5.50;99.90;;;;;;5051238;28;20202;-67
2022/11/13 06:24:15;;;;;;;7.60;6.90;;;5.40;99.90;;;;;;5048499;28;20175;-66
2022/11/13 06:26:41;;;;;;;7.57;6.97;;;5.40;99.90;;;;;;5051386;28;20175;-66
2022/11/13 06:29:09;;;;;;;7.60;7.10;;;5.40;99.90;;;;;;5042707;28;20205;-67
2022/11/13 06:31:36;;;;;;;8.70;8.10;;;5.30;99.90;;;;;;5033453;28;20207;-66
2022/11/13 06:34:02;;;;;;;7.97;7.27;;;5.30;99.90;;;;;;5051393;28;20175;-66
2022/11/13 06:36:30;;;;;;;7.80;7.33;;;5.30;99.90;;;;;;5050087;28;20175;-66
2022/11/13 06:38:56;;;;;;;7.67;7.17;;;5.30;99.90;;;;;;5031404;28;20186;-66
2022/11/13 06:41:24;;;;;;;8.17;7.53;;;5.30;99.90;;;;;;5030947;28;20293;-66
2022/11/13 06:43:50;;;;;;;8.57;7.53;;;5.30;99.90;;;;;;5034863;28;20175;-66
2022/11/13 06:46:18;;;;;;;8.30;7.60;;;5.30;99.90;;;;;;5035512;28;20168;-67
2022/11/13 06:48:44;;;;;;;10.23;7.70;;;5.30;99.90;;;;;;5041109;28;20648;-66
2022/11/13 06:51:16;;;;;;;8.80;7.40;;;5.30;99.90;;;;;;5033878;28;20206;-66
2022/11/13 06:53:42;;;;;;;8.70;8.03;;;5.30;99.90;;;;;;5052154;28;20261;-67
2022/11/13 06:56:08;;;;;;;8.00;7.40;;;5.20;99.90;;;;;;5045231;28;20175;-67
2022/11/13 06:58:33;;;;;;;8.13;7.43;;;5.20;99.90;;;;;;5034491;28;20187;-66
2022/11/13 07:01:09;;;;;;;7.83;7.20;;;5.20;99.90;;;;;;5043014;28;20564;-66
2022/11/13 07:03:35;;;;;;;8.17;7.47;;;5.20;99.90;;;;;;5054565;28;20261;-67
2022/11/13 07:06:06;;;;;;;7.73;7.17;;;5.20;99.90;;;;;;5054759;28;20269;-67
2022/11/13 07:08:32;;;;;;;8.40;7.80;;;5.20;99.90;;;;;;5054808;28;20182;-66
2022/11/13 07:10:58;;;;;;;8.63;7.87;;;5.20;99.90;;;;;;5053697;28;20213;-67
2022/11/13 07:13:25;;;;;;;7.87;7.17;;;5.20;99.90;;;;;;5042467;22;20223;-68
2022/11/13 07:15:51;;;;;;;8.50;7.90;;;5.30;99.90;;;;;;5030187;28;20212;-67
2022/11/13 07:18:17;;;;;;;9.17;8.57;;;5.30;99.90;;;;;;5015202;28;20192;-67
2022/11/13 07:20:43;;;;;;;7.23;6.73;;;5.30;99.90;;;;;;5014281;28;20230;-67
2022/11/13 07:23:09;;;;;;;8.07;7.50;;;5.30;99.90;;;;;;5014895;28;20640;-67
2022/11/13 07:25:34;;;;;;;9.57;7.43;;;5.40;99.90;;;;;;5013362;28;20265;-66
2022/11/13 07:28:01;;;;;;;7.70;7.10;;;5.50;99.90;;;;;;5014974;28;20242;-67
2022/11/13 07:30:26;;;;;;;8.60;8.00;;;5.60;99.90;;;;;;5013191;28;20188;-67
2022/11/13 07:32:52;;;;;;;8.37;7.77;;;5.60;99.90;;;;;;5014670;28;20207;-67
2022/11/13 07:35:18;;;;;;;8.53;7.70;;;5.60;99.90;;;;;;5014624;28;20274;-66
2022/11/13 07:37:44;;;;;;;8.27;7.57;;;5.70;99.90;;;;;;5014604;28;20633;-67
2022/11/13 07:40:10;;;;;;;8.80;8.00;;;5.70;99.90;;;;;;5014102;28;20184;-67
2022/11/13 07:42:37;;;;;;;9.13;7.87;;;5.80;99.90;;;;;;5013236;28;20204;-68
2022/11/13 07:45:03;;;;;;;9.07;8.07;;;5.80;99.90;;;;;;5014413;28;20234;-67
2022/11/13 07:47:29;;;;;;;7.43;6.83;;;5.90;99.90;;;;;;5014412;28;20164;-67
2022/11/13 07:49:55;;;;;;;12.17;8.23;;;5.90;99.90;;;;;;5013963;28;20234;-67
2022/11/13 07:52:20;;;;;;;7.80;7.20;;;6.10;99.90;;;;;;5013086;28;20206;-67
2022/11/13 07:54:46;;;;;;;10.30;7.27;;;6.30;99.90;;;;;;5013916;28;20180;-68
2022/11/13 07:57:12;;;;;;;11.67;8.90;;;6.90;99.90;;;;;;5014362;28;20172;-68
2022/11/13 07:59:38;;;;;;;9.23;8.33;;;7.60;99.90;;;;;;5013562;28;20579;-68
2022/11/13 08:02:04;;;;;;;9.17;8.23;;;8.40;99.90;;;;;;5014182;28;20254;-67
2022/11/13 08:04:30;;;;;;;8.37;7.57;;;9.10;99.90;;;;;;5012571;28;20185;-67
2022/11/13 08:06:55;;;;;;;7.27;6.57;;;9.70;99.90;;;;;;5013863;28;20176;-67
2022/11/13 08:09:21;;;;;;;7.37;6.77;;;10.20;99.90;;;;;;5014092;28;20599;-67
2022/11/13 08:11:47;;;;;;;6.53;6.10;;;10.70;99.90;;;;;;5011847;28;20218;-68
2022/11/13 08:14:12;;;;;;;6.57;5.97;;;11.10;99.90;;;;;;5014160;28;20646;-68
2022/11/13 08:16:38;;;;;;;7.10;6.60;;;11.50;99.90;;;;;;5013482;28;20576;-68
2022/11/13 08:19:04;;;;;;;5.90;5.57;;;11.80;42.30;;;;;;5013877;28;20176;-68
2022/11/13 08:21:29;;;;;;;5.43;5.03;;;12.10;3.00;;;;;;5011713;28;20579;-68
2022/11/13 08:23:55;;;;;;;5.83;5.43;;;12.30;1.00;;;;;;5012675;28;20179;-68
2022/11/13 08:26:21;;;;;;;6.10;5.10;;;12.50;1.00;;;;;;5013730;28;20544;-68
2022/11/13 08:28:47;;;;;;;5.00;4.70;;;12.70;1.00;;;;;;5012438;28;20172;-68
2022/11/13 08:31:15;;;;;;;5.60;5.10;;;12.90;99.90;;;;;;5012546;28;20545;-68
2022/11/13 08:33:41;;;;;;;5.07;4.67;;;13.10;1.00;;;;;;5011908;28;20266;-68
2022/11/13 08:36:07;;;;;;;5.17;4.87;;;13.40;1.00;;;;;;5012453;28;20188;-67
2022/11/13 08:38:33;;;;;;;5.80;4.80;;;13.70;1.00;;;;;;5013281;28;20192;-68
2022/11/13 08:41:00;;;;;;;5.00;4.60;;;14.10;1.00;;;;;;5011953;28;20744;-67
2022/11/13 08:43:26;;;;;;;5.03;4.60;;;14.20;1.00;;;;;;5013144;28;20215;-68
2022/11/13 08:45:52;;;;;;;5.40;4.90;;;14.40;1.00;;;;;;5012160;28;20168;-68
2022/11/13 08:48:18;;;;;;;5.20;4.80;;;14.50;1.00;;;;;;5011985;28;20183;-68
2022/11/13 08:50:43;;;;;;;4.70;4.23;;;14.70;1.00;;;;;;5011618;28;20171;-68
2022/11/13 08:53:10;;;;;;;4.80;4.40;;;14.90;1.00;;;;;;5013409;28;20676;-68
2022/11/13 08:55:36;;;;;;;4.77;4.47;;;15.00;1.00;;;;;;5012817;28;20184;-68
2022/11/13 08:58:03;;;;;;;4.70;4.30;;;15.10;1.00;;;;;;5012121;28;20606;-68
2022/11/13 09:00:30;;;;;;;4.57;4.27;;;15.30;1.00;;;;;;5012477;28;20195;-68
2022/11/13 09:02:57;;;;;;;4.63;4.33;;;15.40;1.00;;;;;;5013023;28;20192;-67
2022/11/13 09:05:24;;;;;;;4.60;4.13;;;15.60;1.00;;;;;;5012135;28;20180;-67
2022/11/13 09:07:50;;;;;;;5.07;4.67;;;15.70;1.00;;;;;;5013004;28;20168;-67
2022/11/13 09:10:17;;;;;;;4.53;4.23;;;15.80;1.00;;;;;;5010675;28;20180;-67
2022/11/13 09:12:43;;;;;;;4.50;4.10;;;15.80;1.00;;;;;;5011361;28;20266;-68
2022/11/13 09:15:09;;;;;;;4.70;4.30;;;15.90;1.00;;;;;;5012763;28;20211;-68
2022/11/13 09:17:35;;;;;;;4.80;4.40;;;16.40;1.00;;;;;;5013031;28;20168;-67
2022/11/13 09:20:01;;;;;;;4.57;4.27;;;16.70;1.00;;;;;;5010851;28;20596;-68
2022/11/13 09:22:26;;;;;;;4.23;3.93;;;17.00;1.00;;;;;;5012697;28;20233;-67
2022/11/13 09:24:52;;;;;;;3.97;3.67;;;17.20;1.00;;;;;;5012478;28;20577;-67
2022/11/13 09:27:17;;;;;;;4.43;4.07;;;17.30;1.00;;;;;;5012862;28;20168;-67
2022/11/13 09:29:43;;;;;;;4.03;3.73;;;17.40;1.00;;;;;;5011760;28;20641;-67
2022/11/13 09:32:09;;;;;;;4.17;3.87;;;17.60;1.00;;;;;;5012728;28;20204;-67
2022/11/13 09:34:35;;;;;;;3.70;3.50;;;17.80;1.00;;;;;;5011618;28;20619;-67
2022/11/13 09:37:00;;;;;;;4.27;3.97;;;18.10;1.00;;;;;;5012705;28;20550;-68
2022/11/13 09:39:27;;;;;;;3.87;3.67;;;18.30;1.00;;;;;;5011332;28;20654;-68
2022/11/13 09:41:55;;;;;;;3.77;3.50;;;18.50;1.00;;;;;;5010248;28;20212;-68
2022/11/13 09:44:32;;;;;;;3.73;3.47;;;18.60;1.00;;;;;;5012037;28;20180;-68
2022/11/13 09:47:12;;;;;;;4.00;3.70;;;18.60;1.00;;;;;;5012329;28;20182;-69
2022/11/13 09:49:42;;;;;;;3.50;3.30;;;18.60;1.00;;;;;;5010096;28;20180;-68
2022/11/13 09:52:15;;;;;;;4.53;4.13;;;18.50;1.00;;;;;;5010880;28;20196;-68
2022/11/13 09:54:41;;;;;;;4.00;3.70;;;18.40;1.00;;;;;;5010932;28;20183;-68
2022/11/13 09:57:12;;;;;;;10.00;6.20;;;18.20;1.00;;;;;;5010463;28;20180;-68
2022/11/13 09:59:55;;;;;;;4.03;3.70;;;18.00;1.00;;;;;;5011069;28;20176;-68
2022/11/13 10:02:41;;;;;;;5.57;5.00;;;18.00;1.00;;;;;;5010902;28;20685;-67
2022/11/13 10:05:27;;;;;;;4.07;3.77;;;17.90;1.00;;;;;;5010865;28;20172;-67
2022/11/13 10:07:56;;;;;;;3.77;3.57;;;17.70;1.00;;;;;;5010732;28;20172;-67
2022/11/13 10:10:48;;;;;;;3.77;3.57;;;17.40;1.00;;;;;;5011725;28;20251;-67
2022/11/13 10:13:23;;;;;;;3.90;3.60;;;17.20;1.00;;;;;;5011618;28;20211;-67
2022/11/13 10:15:54;;;;;;;3.50;3.30;;;17.10;1.00;;;;;;5011872;28;20168;-68
2022/11/13 10:18:24;;;;;;;4.30;4.00;;;16.80;1.00;;;;;;5011845;28;20176;-67
2022/11/13 10:21:03;;;;;;;3.73;3.53;;;16.70;1.00;;;;;;5010259;28;20212;-67
2022/11/13 10:23:33;;;;;;;3.60;3.40;;;16.70;1.00;;;;;;4992081;28;20196;-67
2022/11/13 10:26:23;;;;;;;3.63;3.43;;;16.60;1.00;;;;;;4992331;28;20177;-67
2022/11/13 10:28:59;;;;;;;3.63;3.43;;;16.60;1.00;;;;;;5006656;28;20586;-67
2022/11/13 10:31:25;;;;;;;3.73;3.53;;;16.70;1.00;;;;;;4993051;28;20211;-67
2022/11/13 10:33:53;;;;;;;3.50;3.30;;;16.80;1.00;;;;;;5010480;28;20204;-68
2022/11/13 10:36:34;;;;;;;3.07;2.97;;;16.90;1.00;;;;;;5010393;28;20186;-67
2022/11/13 10:39:04;;;;;;;3.47;3.27;;;17.20;1.00;;;;;;5009802;28;20198;-68
2022/11/13 10:41:31;;;;;;;3.07;2.97;;;17.30;1.00;;;;;;5010238;28;20686;-67
2022/11/13 10:44:17;;;;;;;3.13;3.00;;;17.60;1.00;;;;;;5008435;28;20182;-67
2022/11/13 10:46:42;;;;;;;3.30;3.10;;;17.90;1.00;;;;;;4991917;28;20172;-67
2022/11/13 10:49:18;;;;;;;3.20;3.00;;;18.00;1.00;;;;;;4992373;28;20264;-68
2022/11/13 10:51:44;;;;;;;3.50;3.30;;;18.20;1.00;;;;;;5011537;28;20192;-68
2022/11/13 10:54:35;;;;;;;3.40;3.10;;;18.30;1.00;;;;;;5011081;28;20180;-68
2022/11/13 10:57:04;;;;;;;3.63;3.40;;;18.50;1.00;;;;;;5008285;28;20552;-68
2022/11/13 10:59:41;;;;;;;3.20;3.00;;;18.80;1.00;;;;;;5010669;28;20195;-68
2022/11/13 11:02:25;;;;;;;3.10;3.00;;;18.90;1.00;;;;;;5011432;28;20207;-68
2022/11/13 11:05:18;;;;;;;3.67;3.37;;;19.00;1.00;;;;;;5011206;28;20180;-68
2022/11/13 11:07:44;;;;;;;3.40;3.20;;;19.20;1.00;;;;;;5011755;28;20661;-68
2022/11/13 11:10:33;;;;;;;3.83;3.53;;;19.30;1.00;;;;;;5009504;28;20211;-68
2022/11/13 11:13:05;;;;;;;3.60;3.40;;;19.50;1.00;;;;;;5009644;28;20306;-68
2022/11/13 11:15:47;;;;;;;6.87;3.97;;;19.60;1.00;;;;;;5011240;28;20168;-68
2022/11/13 11:18:32;;;;;;;6.23;3.93;;;19.70;1.00;;;;;;5011446;28;20230;-68
2022/11/13 11:21:03;;;;;;;3.53;3.23;;;19.80;1.00;;;;;;5010792;28;20210;-69
2022/11/13 11:23:50;;;;;;;4.43;4.07;;;20.10;1.00;;;;;;5011003;28;20537;-69
2022/11/13 11:26:22;;;;;;;3.20;3.00;;;20.50;1.00;;;;;;5010961;28;20642;-68
2022/11/13 11:28:58;;;;;;;3.53;3.22;;;20.60;1.00;;;;;;5012873;28;20267;-68
2022/11/13 11:31:36;;;;;;;3.25;3.05;;;20.80;1.00;;;;;;5012990;28;20168;-67
2022/11/13 11:34:20;;;;;;;3.10;2.90;;;21.10;1.00;;;;;;5014809;28;20187;-67
2022/11/13 11:36:59;;;;;;;2.80;2.60;;;21.20;1.00;;;;;;5014859;28;20172;-67
2022/11/13 11:39:34;;;;;;;3.20;2.90;;;21.30;1.00;;;;;;5013040;28;20278;-67
2022/11/13 11:42:19;;;;;;;3.22;3.03;;;21.40;1.00;;;;;;5014543;28;20254;-67
2022/11/13 11:45:00;;;;;;;3.13;2.92;;;21.30;1.00;;;;;;5014147;28;20172;-67
2022/11/13 11:47:27;;;;;;;2.80;2.63;;;21.40;1.00;;;;;;5010970;28;20940;-67
2022/11/13 11:49:53;;;;;;;3.53;2.80;;;21.50;1.00;;;;;;5013022;28;20176;-67
2022/11/13 11:52:36;;;;;;;3.20;3.00;;;21.60;1.00;;;;;;5013034;28;20261;-67
2022/11/13 11:55:24;;;;;;;3.03;2.83;;;21.70;1.00;;;;;;5005790;28;20713;-67
2022/11/13 11:58:30;;;;;;;2.95;2.75;;;21.70;1.00;;;;;;5013044;28;20539;-67
2022/11/13 12:01:12;;;;;;;2.80;2.60;;;21.80;1.00;;;;;;4956268;28;20213;-68
2022/11/13 12:03:47;;;;;;;5.40;3.28;;;21.90;1.00;;;;;;5009298;28;20622;-67
2022/11/13 12:06:16;;;;;;;8.30;4.10;;;21.80;1.00;;;;;;5012652;28;20175;-67
2022/11/13 12:09:10;;;;;;;5.47;3.55;;;21.40;1.00;;;;;;5012836;28;20176;-67
2022/11/13 12:11:54;;;;;;;6.07;4.40;;;21.20;1.00;;;;;;5013513;28;20207;-67
2022/11/13 12:14:19;;;;;;;8.50;4.97;;;21.00;1.00;;;;;;5014184;28;20241;-67
2022/11/13 12:17:03;;;;;;;5.00;4.50;;;20.80;1.00;;;;;;5013760;28;20641;-67
2022/11/13 12:19:46;;;;;;;2.97;2.87;;;20.60;1.00;;;;;;4994110;28;20193;-67
2022/11/13 12:22:14;;;;;;;4.63;3.85;;;20.40;1.00;;;;;;5010879;28;20211;-67
2022/11/13 12:24:48;;;;;;;9.13;4.50;;;20.40;1.00;;;;;;5013940;28;20164;-68
2022/11/13 12:27:58;;;;;;;4.03;3.47;;;20.60;1.00;;;;;;5012516;28;20543;-67
2022/11/13 12:30:39;;;;;;;3.10;2.90;;;20.70;1.00;;;;;;5003372;28;20212;-67
2022/11/13 12:33:07;;;;;;;3.47;3.17;;;20.80;1.00;;;;;;5012329;28;20227;-67
2022/11/13 12:35:34;;;;;;;3.47;3.17;;;20.90;1.00;;;;;;5011936;28;20263;-67
2022/11/13 12:38:38;;;;;;;4.07;3.67;;;21.00;1.00;;;;;;5013586;28;20169;-67
2022/11/13 12:41:41;;;;;;;3.37;3.17;;;21.00;1.00;;;;;;5010700;28;20204;-67
2022/11/13 12:44:27;;;;;;;3.40;3.20;;;21.10;1.00;;;;;;5008469;28;20179;-67
2022/11/13 12:46:56;;;;;;;3.50;3.20;;;21.20;1.00;;;;;;5013384;28;20199;-66
2022/11/13 12:49:21;;;;;;;3.00;2.80;;;21.00;1.00;;;;;;5010109;28;20234;-66
2022/11/13 12:51:57;;;;;;;3.25;3.05;;;20.90;1.00;;;;;;5011791;28;20199;-67
2022/11/13 12:54:30;;;;;;;3.13;2.92;;;20.80;1.00;;;;;;5013350;28;20179;-67
2022/11/13 12:57:17;;;;;;;3.10;2.90;;;20.70;1.00;;;;;;5013102;28;20179;-68
2022/11/13 12:59:55;;;;;;;3.13;2.93;;;20.60;1.00;;;;;;5012656;28;20207;-67
2022/11/13 13:02:39;;;;;;;3.10;2.90;;;20.60;1.00;;;;;;5011807;28;20290;-68
2022/11/13 13:05:37;;;;;;;3.33;3.03;;;20.70;1.00;;;;;;5012892;28;20210;-67
2022/11/13 13:08:15;;;;;;;3.47;3.17;;;20.90;1.00;;;;;;5012040;28;20179;-67
2022/11/13 13:10:56;;;;;;;3.27;3.07;;;21.10;1.00;;;;;;5012422;28;20199;-67